Terminal Aerodrome Forecast
Issued by NWS

Current Version | Previous Version | Text Only | Print | Product List | Glossary Off
Versions: 1 2 3 4 5 6 7 8 9 10 11 12 13 14 15 16 17 18 19

000
FTUS41 KILN 301800 AAA
TAFLCK
TAF AMD
KLCK 301839Z 3019/0118 29006KT P6SM BKN025
     FM302100 33007KT 5SM HZ BKN025
     FM302300 35004KT 5SM BR OVC009
      TEMPO 0108/0112 1SM BR OVC003
     FM011500 06003KT P6SM BKN012=

USA.gov is the U.S. government's official web portal to all federal, state and local government web resources and services.